Time;durP1;ratioP1;P1;durP2;ratioP2;P2;SDS_P1;SDS_P2;PMS_P1;PMS_P2;Temp;Humidity;BMP_temperature;BMP_pressure;BME280_temperature;BME280_humidity;BME280_pressure;Samples;Min_cycle;Max_cycle;Signal;HPM_P1;HPM_P2
2021/06/14 00:01:47;;;;;;;4.95;3.03;;;;;;;20.36;60.57;101037.28;5020074;28;20032;-76
2021/06/14 00:04:13;;;;;;;4.13;2.63;;;;;;;20.31;60.60;101033.53;5046567;28;20045;-77
2021/06/14 00:06:38;;;;;;;4.22;2.58;;;;;;;20.27;60.83;101041.03;5041077;28;20036;-76
2021/06/14 00:09:04;;;;;;;2.92;2.40;;;;;;;20.25;60.67;101034.09;5030320;28;20034;-77
2021/06/14 00:11:30;;;;;;;3.30;2.63;;;;;;;20.19;60.79;101033.47;5042308;28;20025;-76
2021/06/14 00:13:55;;;;;;;5.18;2.70;;;;;;;20.14;60.74;101030.06;5023808;28;20039;-77
2021/06/14 00:16:21;;;;;;;3.10;2.42;;;;;;;20.09;61.06;101025.47;5048675;28;20058;-77
2021/06/14 00:18:47;;;;;;;3.92;2.55;;;;;;;20.06;61.37;101020.53;5043599;28;20469;-78
2021/06/14 00:21:13;;;;;;;4.22;2.65;;;;;;;20.00;61.15;101024.69;5028539;28;20026;-77
2021/06/14 00:23:39;;;;;;;4.38;2.50;;;;;;;19.96;61.23;101015.31;5047622;28;20064;-77
2021/06/14 00:26:07;;;;;;;4.38;2.65;;;;;;;19.94;61.69;101012.00;5045699;28;20029;-78
2021/06/14 00:28:33;;;;;;;3.97;2.80;;;;;;;19.90;61.52;101016.69;5004036;28;20036;-77
2021/06/14 00:30:58;;;;;;;3.05;2.42;;;;;;;19.81;61.86;101006.31;5048565;28;20033;-77
2021/06/14 00:33:24;;;;;;;3.67;2.75;;;;;;;19.80;62.20;101007.47;5032672;28;20055;-77
2021/06/14 00:35:50;;;;;;;3.70;2.60;;;;;;;19.77;62.17;101010.97;5035372;28;20551;-77
2021/06/14 00:38:15;;;;;;;3.85;2.58;;;;;;;19.71;62.38;101006.72;5044437;28;20025;-78
2021/06/14 00:40:42;;;;;;;3.70;2.50;;;;;;;19.66;62.04;101008.91;5038781;28;20026;-77
2021/06/14 00:43:07;;;;;;;4.63;2.90;;;;;;;19.61;62.10;101007.09;5019235;28;20093;-77
2021/06/14 00:45:34;;;;;;;3.50;2.85;;;;;;;19.61;62.15;101001.47;5011541;28;20512;-77
2021/06/14 00:48:00;;;;;;;3.72;2.78;;;;;;;19.52;62.10;101007.16;5037954;28;20042;-77
2021/06/14 00:50:48;;;;;;;3.28;2.50;;;;;;;19.43;62.65;101001.59;5047061;28;20428;-77
2021/06/14 00:53:20;;;;;;;3.25;2.70;;;;;;;19.42;62.81;100990.69;5038703;28;20060;-77
2021/06/14 00:55:45;;;;;;;3.57;2.60;;;;;;;19.38;62.48;100998.97;5041290;28;20041;-77
2021/06/14 00:58:11;;;;;;;2.97;2.53;;;;;;;19.39;63.19;101000.66;5033625;28;20060;-77
2021/06/14 01:00:37;;;;;;;3.00;2.50;;;;;;;19.34;62.91;100995.22;5026080;28;20254;-77
2021/06/14 01:03:02;;;;;;;4.20;2.75;;;;;;;19.25;63.01;100997.25;5034730;28;20048;-77
2021/06/14 01:05:29;;;;;;;5.30;2.63;;;;;;;19.23;63.17;100993.97;5047965;28;20529;-77
2021/06/14 01:07:55;;;;;;;3.83;2.80;;;;;;;19.22;63.49;100989.47;5038489;28;20037;-77
2021/06/14 01:10:20;;;;;;;3.20;2.78;;;;;;;19.19;63.38;100993.81;5044298;28;20036;-77
2021/06/14 01:13:06;;;;;;;4.97;2.90;;;;;;;19.13;63.36;100999.97;5024992;28;20034;-77
2021/06/14 01:15:31;;;;;;;4.55;2.83;;;;;;;19.11;63.52;100988.22;5029329;28;20033;-78
2021/06/14 01:18:02;;;;;;;4.22;3.05;;;;;;;19.09;64.30;100985.75;5028844;28;20132;-77
2021/06/14 01:20:36;;;;;;;3.00;2.70;;;;;;;19.03;63.75;100981.50;5022187;28;20030;-77
2021/06/14 01:23:25;;;;;;;3.97;3.00;;;;;;;18.96;64.05;100984.81;5042700;28;20482;-77
2021/06/14 01:26:10;;;;;;;3.10;2.45;;;;;;;18.93;63.94;100988.31;5038271;28;20045;-78
2021/06/14 01:28:35;;;;;;;4.20;2.70;;;;;;;18.89;63.95;100984.56;5027130;28;20094;-77
2021/06/14 01:31:01;;;;;;;3.35;2.60;;;;;;;18.89;63.85;100987.38;5022617;28;20128;-77
2021/06/14 01:33:28;;;;;;;3.38;2.55;;;;;;;18.88;63.75;100982.88;5029264;28;20396;-77
2021/06/14 01:35:56;;;;;;;3.05;2.60;;;;;;;18.84;64.10;100984.75;5008805;28;20035;-77
2021/06/14 01:38:23;;;;;;;3.42;2.38;;;;;;;18.77;63.94;100984.44;5031730;28;20101;-77
2021/06/14 01:40:49;;;;;;;3.88;2.75;;;;;;;18.72;64.18;100985.44;5046208;28;20067;-77
2021/06/14 01:43:16;;;;;;;3.55;2.60;;;;;;;18.67;64.58;100987.59;5025673;28;20028;-77
2021/06/14 01:45:43;;;;;;;3.10;2.80;;;;;;;18.66;64.65;100983.13;5029711;28;20029;-77
2021/06/14 01:48:09;;;;;;;3.08;2.50;;;;;;;18.64;63.92;100982.66;5028094;28;20033;-77
2021/06/14 01:50:35;;;;;;;4.82;3.00;;;;;;;18.61;64.05;100977.69;5018225;28;20537;-77
2021/06/14 01:53:01;;;;;;;3.15;2.60;;;;;;;18.58;64.74;100976.34;5025764;28;20057;-77
2021/06/14 01:55:26;;;;;;;3.75;2.35;;;;;;;18.52;64.40;100984.16;5022044;28;20567;-77
2021/06/14 01:57:52;;;;;;;3.92;2.60;;;;;;;18.52;64.41;100977.72;5028323;28;20538;-77
2021/06/14 02:00:22;;;;;;;3.60;2.50;;;;;;;18.49;65.05;100984.84;5045789;28;20449;-78
2021/06/14 02:02:48;;;;;;;4.53;3.20;;;;;;;18.44;64.75;100970.97;5025387;28;20037;-77
2021/06/14 02:05:14;;;;;;;4.15;2.45;;;;;;;18.41;64.82;100971.63;5030288;28;20382;-77
2021/06/14 02:07:43;;;;;;;4.63;2.95;;;;;;;18.38;65.08;100977.94;5041644;28;20033;-77
2021/06/14 02:10:09;;;;;;;5.93;2.53;;;;;;;18.35;65.12;100977.78;5040199;28;20025;-77
2021/06/14 02:12:40;;;;;;;3.10;2.28;;;;;;;18.29;65.14;100975.16;5033133;28;20029;-77
2021/06/14 02:15:07;;;;;;;3.25;2.42;;;;;;;18.24;65.36;100978.13;5004636;28;20550;-77
2021/06/14 02:17:33;;;;;;;3.38;2.85;;;;;;;18.22;65.60;100976.81;5026868;28;20100;-77
2021/06/14 02:19:59;;;;;;;3.20;2.58;;;;;;;18.25;65.61;100973.34;5009860;28;20040;-76
2021/06/14 02:22:24;;;;;;;3.90;2.60;;;;;;;18.15;65.19;100970.91;5022109;28;20094;-77
2021/06/14 02:24:50;;;;;;;5.30;2.95;;;;;;;18.14;65.69;100972.06;5051283;28;20033;-76
2021/06/14 02:27:15;;;;;;;4.95;2.60;;;;;;;18.07;65.63;100972.56;5008509;28;20025;-77
2021/06/14 02:29:41;;;;;;;3.92;2.45;;;;;;;18.05;65.80;100960.81;5042990;28;20030;-76
2021/06/14 02:32:07;;;;;;;4.72;2.47;;;;;;;17.99;65.51;100968.59;5036113;28;20037;-76
2021/06/14 02:34:32;;;;;;;3.03;2.47;;;;;;;17.99;65.45;100965.78;5011953;28;20029;-76
2021/06/14 02:36:58;;;;;;;4.50;2.70;;;;;;;17.98;65.73;100964.13;5026977;28;20048;-76
2021/06/14 02:39:28;;;;;;;4.00;2.75;;;;;;;17.96;65.71;100960.84;5027394;28;20055;-76
2021/06/14 02:41:54;;;;;;;3.05;2.40;;;;;;;17.95;65.33;100958.38;5020874;28;20085;-76
2021/06/14 02:44:23;;;;;;;4.10;2.67;;;;;;;17.89;65.77;100954.09;5026137;28;20398;-76
2021/06/14 02:46:49;;;;;;;4.18;2.58;;;;;;;17.89;66.04;100963.34;5008459;28;20060;-77
2021/06/14 02:49:14;;;;;;;4.65;2.63;;;;;;;17.85;65.89;100965.16;5007550;28;20472;-76
2021/06/14 02:51:40;;;;;;;4.18;2.60;;;;;;;17.78;65.79;100960.03;5012850;28;20121;-76
2021/06/14 02:54:08;;;;;;;2.92;2.50;;;;;;;17.80;66.73;100965.31;5034589;28;20045;-76
2021/06/14 02:56:35;;;;;;;2.83;2.22;;;;;;;17.77;66.24;100963.13;5038221;28;20033;-76
2021/06/14 02:59:02;;;;;;;4.30;2.50;;;;;;;17.70;66.40;100963.66;5043686;28;20033;-76
2021/06/14 03:01:28;;;;;;;4.13;2.60;;;;;;;17.72;66.18;100961.34;5036931;28;20086;-77
2021/06/14 03:03:56;;;;;;;2.85;2.40;;;;;;;17.67;66.51;100964.31;5035113;28;20096;-76
2021/06/14 03:06:22;;;;;;;3.28;2.60;;;;;;;17.64;66.42;100970.59;5040302;28;20025;-76
2021/06/14 03:08:47;;;;;;;4.10;2.47;;;;;;;17.61;66.33;100972.09;5003815;28;20026;-76
2021/06/14 03:11:13;;;;;;;2.60;2.13;;;;;;;17.58;66.27;100977.53;5026455;28;20022;-77
2021/06/14 03:13:44;;;;;;;4.35;2.30;;;;;;;17.59;66.09;100974.38;5040942;28;20029;-76
2021/06/14 03:16:09;;;;;;;3.80;2.70;;;;;;;17.53;66.23;100970.09;5038509;28;20035;-76
2021/06/14 03:18:34;;;;;;;2.95;2.30;;;;;;;17.52;66.15;100968.44;5029292;28;20018;-76
2021/06/14 03:21:00;;;;;;;3.45;2.63;;;;;;;17.48;66.41;100966.63;5003608;28;20032;-76
2021/06/14 03:23:25;;;;;;;3.95;2.53;;;;;;;17.45;66.53;100968.09;5024405;28;20033;-76
2021/06/14 03:25:51;;;;;;;2.22;2.03;;;;;;;17.44;66.55;100966.47;5042342;28;20083;-76
2021/06/14 03:28:17;;;;;;;3.70;2.40;;;;;;;17.37;67.02;100957.69;5026754;28;20492;-76
2021/06/14 03:30:42;;;;;;;4.82;2.40;;;;;;;17.36;66.46;100956.06;5034799;28;20047;-76
2021/06/14 03:33:08;;;;;;;5.03;2.50;;;;;;;17.32;66.92;100963.47;5026185;28;20056;-76
2021/06/14 03:35:34;;;;;;;6.68;2.40;;;;;;;17.31;66.49;100964.63;5024547;28;20436;-76
2021/06/14 03:38:00;;;;;;;5.13;2.58;;;;;;;17.28;66.58;100970.91;5041289;28;20053;-76
2021/06/14 03:40:25;;;;;;;3.63;2.40;;;;;;;17.27;66.92;100964.44;5029069;28;20547;-76
2021/06/14 03:43:01;;;;;;;2.55;2.25;;;;;;;17.26;66.87;100967.59;5027170;28;20030;-76
2021/06/14 03:45:27;;;;;;;3.75;1.95;;;;;;;17.19;66.78;100971.72;5044026;28;20114;-77
2021/06/14 03:47:53;;;;;;;2.90;2.30;;;;;;;17.15;67.29;100965.09;5045946;28;20498;-77
2021/06/14 03:50:18;;;;;;;2.92;2.42;;;;;;;17.12;67.19;100965.75;5007202;28;20109;-77
2021/06/14 03:52:44;;;;;;;2.85;2.20;;;;;;;17.07;67.12;100967.88;5035570;28;20021;-77
2021/06/14 03:55:10;;;;;;;3.33;2.20;;;;;;;17.12;67.12;100971.38;5038230;28;20049;-77
2021/06/14 03:57:36;;;;;;;7.45;2.50;;;;;;;17.06;67.11;100977.47;5037020;28;20038;-77
2021/06/14 04:00:02;;;;;;;2.88;2.50;;;;;;;17.05;67.29;100976.66;5041526;28;20025;-77
2021/06/14 04:02:27;;;;;;;3.67;2.47;;;;;;;17.06;67.00;100983.09;5028638;28;20033;-77
2021/06/14 04:04:55;;;;;;;3.20;2.55;;;;;;;17.07;66.72;100979.94;5028262;28;20032;-77
2021/06/14 04:07:20;;;;;;;4.93;2.45;;;;;;;17.00;67.54;100981.59;5049150;28;20139;-77
2021/06/14 04:09:46;;;;;;;8.32;2.40;;;;;;;16.97;67.09;100985.88;5030308;28;20021;-77
2021/06/14 04:12:12;;;;;;;5.05;2.60;;;;;;;16.92;67.18;100981.22;5026014;28;20037;-77
2021/06/14 04:14:38;;;;;;;4.88;2.53;;;;;;;16.92;67.54;100978.41;5025641;28;20044;-77
2021/06/14 04:17:05;;;;;;;4.63;2.50;;;;;;;16.95;67.40;100980.56;5050357;28;20025;-77
2021/06/14 04:19:30;;;;;;;6.38;2.28;;;;;;;16.92;67.49;100986.00;5005977;28;20025;-77
2021/06/14 04:21:57;;;;;;;4.00;2.38;;;;;;;16.90;67.97;100985.50;5049346;28;20029;-77
2021/06/14 04:24:23;;;;;;;3.35;2.08;;;;;;;16.92;68.15;100981.22;5044411;28;20025;-77
2021/06/14 04:26:48;;;;;;;3.47;2.42;;;;;;;16.96;68.35;100979.41;5023187;28;20057;-77
2021/06/14 04:29:14;;;;;;;3.65;2.03;;;;;;;17.00;68.41;100978.78;5028672;28;20022;-77
2021/06/14 04:31:39;;;;;;;3.42;2.08;;;;;;;16.99;68.58;100975.13;5040337;28;20425;-76
2021/06/14 04:34:05;;;;;;;4.22;2.42;;;;;;;17.06;68.91;100974.66;5047784;28;20060;-76
2021/06/14 04:36:30;;;;;;;4.70;2.15;;;;;;;17.12;69.37;100973.34;5042516;28;20030;-77
2021/06/14 04:38:56;;;;;;;3.45;2.30;;;;;;;17.19;69.58;100971.72;5034036;28;20047;-76
2021/06/14 04:41:21;;;;;;;4.05;2.47;;;;;;;17.27;69.71;100972.03;5032405;28;20045;-77
2021/06/14 04:43:47;;;;;;;2.85;2.50;;;;;;;17.35;70.67;100960.81;5041962;28;20036;-76
2021/06/14 04:46:12;;;;;;;3.03;2.55;;;;;;;17.45;71.95;100962.50;5021353;28;20037;-76
2021/06/14 04:48:38;;;;;;;3.50;2.67;;;;;;;17.55;72.92;100955.72;5030016;28;20038;-76
2021/06/14 04:51:03;;;;;;;3.30;2.40;;;;;;;17.66;70.39;100957.03;5041511;28;20028;-76
2021/06/14 04:53:29;;;;;;;4.00;2.40;;;;;;;17.78;69.73;100965.66;5043005;28;20044;-76
2021/06/14 04:55:54;;;;;;;3.33;2.30;;;;;;;17.94;69.55;100967.94;5032855;28;20071;-76
2021/06/14 04:58:20;;;;;;;2.50;2.25;;;;;;;18.08;68.12;100969.41;5040809;28;20030;-77
2021/06/14 05:00:46;;;;;;;5.03;2.78;;;;;;;18.21;67.39;100961.94;5044327;28;20092;-76
2021/06/14 05:03:11;;;;;;;2.60;2.30;;;;;;;18.37;66.89;100964.22;5040266;28;20076;-76
2021/06/14 05:05:37;;;;;;;3.80;2.42;;;;;;;18.52;67.22;100960.84;5031410;28;20033;-77
2021/06/14 05:08:03;;;;;;;2.35;1.98;;;;;;;18.66;66.27;100960.63;5050946;28;20036;-76
2021/06/14 05:10:29;;;;;;;3.05;2.08;;;;;;;18.81;66.63;100956.47;5029070;28;20052;-75
2021/06/14 05:12:54;;;;;;;2.92;1.92;;;;;;;18.96;65.55;100965.13;5049883;28;20025;-75
2021/06/14 05:15:20;;;;;;;2.55;2.10;;;;;;;19.13;65.49;100963.38;5043477;28;20034;-75
2021/06/14 05:17:46;;;;;;;4.32;2.30;;;;;;;19.31;65.79;100961.28;5036777;28;20025;-75
2021/06/14 05:20:12;;;;;;;3.97;2.20;;;;;;;19.48;65.48;100972.41;5045555;28;20034;-75
2021/06/14 05:22:37;;;;;;;2.67;2.30;;;;;;;19.64;65.12;100972.63;5045570;28;20485;-73
2021/06/14 05:25:03;;;;;;;5.25;2.17;;;;;;;19.80;65.06;100976.47;5022042;28;20029;-73
2021/06/14 05:27:29;;;;;;;2.90;2.15;;;;;;;19.97;64.86;100983.94;5033049;28;20025;-73
2021/06/14 05:29:54;;;;;;;2.88;2.10;;;;;;;20.15;64.90;100980.97;5031554;28;20393;-73
2021/06/14 05:32:20;;;;;;;3.15;1.98;;;;;;;20.33;63.78;100976.75;5034861;28;20029;-75
2021/06/14 05:34:46;;;;;;;3.00;1.98;;;;;;;20.51;63.29;100974.59;5031388;28;20481;-75
2021/06/14 05:37:11;;;;;;;3.95;2.10;;;;;;;20.68;62.93;100971.56;5038776;28;20572;-75
2021/06/14 05:39:37;;;;;;;2.78;2.22;;;;;;;20.86;62.16;100960.03;5046901;28;20548;-75
2021/06/14 05:42:02;;;;;;;2.83;2.05;;;;;;;21.03;62.00;100965.44;5026486;28;20431;-75
2021/06/14 05:44:28;;;;;;;3.33;2.17;;;;;;;21.21;61.51;100963.19;5048671;28;20037;-75
2021/06/14 05:46:54;;;;;;;2.65;2.00;;;;;;;21.36;61.34;100961.63;5044584;28;20397;-75
2021/06/14 05:49:20;;;;;;;2.25;1.98;;;;;;;21.52;61.06;100961.75;5039065;28;20025;-75
2021/06/14 05:51:45;;;;;;;2.80;1.58;;;;;;;21.71;60.84;100961.09;5028082;28;20029;-75
2021/06/14 05:54:11;;;;;;;3.38;1.90;;;;;;;21.89;60.71;100965.25;5040914;28;20045;-75
2021/06/14 05:56:36;;;;;;;2.22;1.88;;;;;;;22.07;60.32;100963.75;5014503;28;20029;-75
2021/06/14 05:59:02;;;;;;;2.40;1.88;;;;;;;22.27;60.26;100978.06;5036264;28;20029;-75
2021/06/14 06:01:31;;;;;;;3.08;1.88;;;;;;;22.43;60.51;100969.63;5024368;28;20037;-75
2021/06/14 06:03:56;;;;;;;2.75;1.90;;;;;;;22.62;60.13;100969.72;5026291;28;20030;-75
2021/06/14 06:06:22;;;;;;;3.45;2.08;;;;;;;22.78;59.66;100969.69;5005293;28;20030;-75
2021/06/14 06:08:47;;;;;;;2.58;1.90;;;;;;;22.95;59.41;100972.16;5022513;28;20045;-75
2021/06/14 06:11:13;;;;;;;3.83;1.90;;;;;;;23.13;59.18;100969.78;5010713;28;20029;-75
2021/06/14 06:13:38;;;;;;;3.25;1.67;;;;;;;23.30;59.15;100973.41;5046068;28;20041;-75
2021/06/14 06:16:04;;;;;;;3.72;2.17;;;;;;;23.41;59.03;100969.63;5026396;28;20037;-75
2021/06/14 06:18:30;;;;;;;3.53;2.03;;;;;;;23.59;58.86;100974.84;5012023;28;20112;-79
2021/06/14 06:20:55;;;;;;;6.60;2.55;;;;;;;23.67;59.51;100976.66;5027366;28;20037;-73
2021/06/14 06:23:21;;;;;;;3.42;1.85;;;;;;;23.89;58.58;100974.31;5031703;28;20041;-73
2021/06/14 06:25:46;;;;;;;4.53;2.00;;;;;;;24.04;58.10;100982.72;5011405;28;20030;-73
2021/06/14 06:28:12;;;;;;;6.82;2.53;;;;;;;24.19;57.81;100978.16;5036207;28;20033;-73
2021/06/14 06:30:38;;;;;;;7.00;2.70;;;;;;;24.32;57.71;100975.94;5047448;28;20515;-74
2021/06/14 06:33:08;;;;;;;6.20;2.40;;;;;;;24.47;57.50;100980.72;5043114;28;20029;-73
2021/06/14 06:35:34;;;;;;;6.05;2.50;;;;;;;24.61;57.59;100976.53;5036438;28;20044;-74
2021/06/14 06:38:00;;;;;;;4.93;2.80;;;;;;;24.73;57.04;100987.66;5048879;28;20033;-75
2021/06/14 06:40:25;;;;;;;5.20;2.60;;;;;;;24.88;56.78;100995.25;5025559;28;20026;-76
2021/06/14 06:42:52;;;;;;;9.05;2.33;;;;;;;25.01;56.70;100986.50;5022805;28;20033;-74
2021/06/14 06:45:17;;;;;;;8.95;2.47;;;;;;;25.16;56.21;100994.09;5027619;28;20029;-74
2021/06/14 06:47:42;;;;;;;4.60;2.03;;;;;;;25.34;56.19;100985.84;5020622;28;20033;-74
2021/06/14 06:50:09;;;;;;;7.47;2.47;;;;;;;25.49;55.69;100987.69;5017095;28;20524;-74
2021/06/14 06:52:36;;;;;;;4.13;2.13;;;;;;;25.64;56.13;100991.53;5024313;28;20040;-74
2021/06/14 06:55:04;;;;;;;4.18;2.38;;;;;;;25.81;55.69;100984.44;5019752;28;20045;-74
2021/06/14 06:57:29;;;;;;;5.82;2.20;;;;;;;25.99;55.30;100984.69;5005041;28;20025;-74
2021/06/14 06:59:54;;;;;;;5.95;1.90;;;;;;;26.13;55.11;100976.31;4999841;28;20029;-74
2021/06/14 07:02:20;;;;;;;5.22;2.42;;;;;;;26.26;55.11;100988.25;5005232;28;20022;-74
2021/06/14 07:04:45;;;;;;;3.67;2.03;;;;;;;26.46;54.57;100983.19;5011057;28;20033;-74
2021/06/14 07:07:11;;;;;;;3.17;1.83;;;;;;;26.60;54.28;100994.72;5003636;28;20036;-74
2021/06/14 07:09:36;;;;;;;2.60;1.88;;;;;;;26.77;54.00;100993.25;5022681;28;20046;-74
2021/06/14 07:12:02;;;;;;;2.80;1.70;;;;;;;26.90;53.59;100993.78;5026555;28;20037;-75
2021/06/14 07:14:28;;;;;;;3.60;1.95;;;;;;;27.05;53.34;100989.00;5002302;28;20492;-75
2021/06/14 07:16:53;;;;;;;3.88;1.63;;;;;;;27.14;52.92;100986.66;5013228;28;20025;-75
2021/06/14 07:19:19;;;;;;;4.97;1.40;;;;;;;27.24;52.66;100994.47;5020819;28;20028;-75
2021/06/14 07:21:44;;;;;;;3.17;1.70;;;;;;;27.36;52.28;100982.75;5008431;28;20030;-75
2021/06/14 07:24:10;;;;;;;3.17;1.80;;;;;;;27.49;51.93;100983.22;5011773;28;20362;-75
2021/06/14 07:26:36;;;;;;;2.90;1.33;;;;;;;27.64;51.56;100978.44;5022568;28;20048;-75
2021/06/14 07:29:01;;;;;;;3.03;1.45;;;;;;;27.76;51.51;100977.25;5016013;28;20048;-75
2021/06/14 07:31:27;;;;;;;4.15;1.50;;;;;;;27.87;51.09;100966.75;5012286;28;20025;-75
2021/06/14 07:33:57;;;;;;;3.88;1.50;;;;;;;27.98;50.91;100967.59;5022248;28;20102;-75
2021/06/14 07:36:23;;;;;;;1.60;1.10;;;;;;;28.12;50.61;100963.97;5000921;28;20037;-75
2021/06/14 07:38:48;;;;;;;4.47;1.52;;;;;;;28.23;50.56;100961.16;5010173;28;20095;-74
2021/06/14 07:41:14;;;;;;;1.50;1.17;;;;;;;28.32;50.07;100955.03;5035258;28;20029;-74
2021/06/14 07:43:40;;;;;;;2.63;1.27;;;;;;;28.45;49.85;100959.19;5029514;28;20116;-74
2021/06/14 07:46:06;;;;;;;3.22;1.38;;;;;;;28.55;48.29;100958.34;4996759;28;20029;-75
2021/06/14 07:48:32;;;;;;;2.00;1.25;;;;;;;28.70;48.59;100957.16;5012578;28;20637;-75
2021/06/14 07:50:58;;;;;;;2.40;1.15;;;;;;;28.80;49.07;100954.69;5026721;28;20022;-74
2021/06/14 07:53:24;;;;;;;2.05;1.00;;;;;;;28.91;48.88;100955.50;5025458;28;20030;-75
2021/06/14 07:55:52;;;;;;;2.38;1.33;;;;;;;29.02;48.71;100961.22;5053254;28;20126;-75
2021/06/14 07:58:17;;;;;;;4.15;1.33;;;;;;;29.12;48.35;100960.44;5042541;28;20099;-75
2021/06/14 08:00:43;;;;;;;2.60;1.75;;;;;;;29.24;48.20;100968.56;5025062;28;20045;-75
2021/06/14 08:03:09;;;;;;;2.00;1.33;;;;;;;29.38;47.83;100962.00;5031716;28;20033;-75
2021/06/14 08:05:34;;;;;;;6.15;1.65;;;;;;;29.50;47.86;100963.59;5039991;28;20895;-75
2021/06/14 08:08:00;;;;;;;2.35;1.20;;;;;;;29.60;47.50;100963.56;5009574;28;20041;-75
2021/06/14 08:10:25;;;;;;;2.38;1.40;;;;;;;29.73;47.64;100957.44;5042488;28;20030;-75
2021/06/14 08:12:51;;;;;;;1.98;1.10;;;;;;;29.85;47.58;100959.81;5030711;28;20026;-75
2021/06/14 08:15:22;;;;;;;2.67;1.20;;;;;;;29.97;47.15;100967.13;5030922;28;20065;-75
2021/06/14 08:17:48;;;;;;;3.10;1.10;;;;;;;30.12;46.86;100973.59;5025509;28;20037;-75
2021/06/14 08:25:34;;;;;;;1.85;0.93;;;;;;;30.58;45.95;100969.63;5026625;28;20103;-76
2021/06/14 08:28:00;;;;;;;1.85;0.95;;;;;;;30.72;45.49;100966.66;5019576;28;20053;-76
2021/06/14 08:30:26;;;;;;;2.00;1.02;;;;;;;30.87;45.03;100964.50;5017531;28;20070;-76
2021/06/14 08:32:51;;;;;;;1.77;0.90;;;;;;;31.01;44.71;100967.25;5024567;28;20032;-76
2021/06/14 08:35:19;;;;;;;1.40;0.90;;;;;;;31.16;44.36;100973.66;5013867;28;20030;-75
2021/06/14 08:37:46;;;;;;;3.17;0.88;;;;;;;31.09;44.52;100970.84;5027859;28;20025;-75
2021/06/14 08:40:12;;;;;;;2.65;0.90;;;;;;;31.26;43.42;100966.19;5040014;28;20104;-76
2021/06/14 08:42:38;;;;;;;3.83;1.10;;;;;;;31.34;43.34;100971.44;5043054;28;20040;-76
2021/06/14 08:45:05;;;;;;;2.70;0.80;;;;;;;31.41;40.33;100958.28;5050039;28;20037;-76
2021/06/14 08:47:30;;;;;;;2.13;0.93;;;;;;;31.51;41.21;100960.19;5012726;28;20033;-75
2021/06/14 08:49:56;;;;;;;1.42;0.70;;;;;;;31.59;42.73;100956.84;5039240;28;20029;-76
2021/06/14 08:52:22;;;;;;;3.33;0.90;;;;;;;31.67;42.10;100957.53;5038960;28;20480;-75
2021/06/14 08:54:48;;;;;;;1.73;1.00;;;;;;;31.78;41.69;100963.16;5040127;28;20046;-75
2021/06/14 08:57:13;;;;;;;1.52;0.70;;;;;;;31.93;41.61;100949.44;5030261;28;20037;-75
2021/06/14 08:59:39;;;;;;;2.15;0.70;;;;;;;32.05;41.54;100949.69;5032727;28;20029;-75
2021/06/14 09:02:05;;;;;;;2.47;0.88;;;;;;;32.18;40.51;100949.09;5037907;28;20038;-75
2021/06/14 09:04:32;;;;;;;4.03;1.30;;;;;;;32.27;38.30;100947.31;5023842;28;20052;-76
2021/06/14 09:06:58;;;;;;;6.38;1.15;;;;;;;32.45;37.91;100957.72;5023524;28;20033;-75
2021/06/14 09:09:23;;;;;;;3.15;1.10;;;;;;;32.61;38.22;100948.47;5013057;28;20031;-76
2021/06/14 09:11:51;;;;;;;2.10;0.90;;;;;;;32.62;37.58;100950.09;5033968;28;20025;-76
2021/06/14 09:14:17;;;;;;;2.88;0.73;;;;;;;32.80;38.86;100946.94;5040136;28;20038;-76
2021/06/14 09:16:43;;;;;;;2.45;1.13;;;;;;;32.94;39.82;100950.34;5025185;28;20033;-76
2021/06/14 09:19:30;;;;;;;2.35;1.02;;;;;;;33.00;39.54;100942.06;5049665;28;20026;-76
2021/06/14 09:21:56;;;;;;;2.38;1.08;;;;;;;33.07;39.78;100947.72;5039094;28;20044;-76
2021/06/14 09:24:25;;;;;;;1.35;0.90;;;;;;;33.13;40.29;100951.69;5022254;28;20051;-76
2021/06/14 09:26:51;;;;;;;1.38;0.93;;;;;;;33.17;38.73;100947.94;5048918;28;20137;-76
2021/06/14 09:29:24;;;;;;;2.28;1.30;;;;;;;33.26;38.26;100956.78;5049150;28;20029;-76
2021/06/14 09:31:58;;;;;;;2.38;1.38;;;;;;;33.29;37.50;100944.41;5030646;28;20021;-76
2021/06/14 09:34:35;;;;;;;2.53;1.55;;;;;;;33.42;36.44;100954.00;5036225;28;20044;-75
2021/06/14 09:37:02;;;;;;;2.15;1.20;;;;;;;33.58;37.72;100954.13;5049789;28;20033;-75
2021/06/14 09:39:33;;;;;;;3.80;1.50;;;;;;;33.42;36.52;100945.38;5040243;28;20049;-75
2021/06/14 09:41:59;;;;;;;2.97;1.83;;;;;;;33.55;36.19;100936.94;5037560;28;20485;-75
2021/06/14 09:44:31;;;;;;;2.80;1.60;;;;;;;33.43;37.02;100944.13;5045643;28;20025;-75
2021/06/14 09:47:04;;;;;;;;;;;;;;;33.55;36.97;100954.22;5043499;28;20038;-75
2021/06/14 09:49:29;;;;;;;2.75;1.55;;;;;;;33.56;36.85;100950.88;5042261;28;19912;-75
2021/06/14 09:51:56;;;;;;;3.17;1.40;;;;;;;33.83;37.29;100958.56;5041213;28;20025;-75
2021/06/14 09:54:29;;;;;;;6.28;1.60;;;;;;;33.82;37.62;100948.28;5036111;28;20054;-75
2021/06/14 09:56:56;;;;;;;4.38;1.60;;;;;;;33.70;37.01;100948.97;5046895;28;20062;-75
2021/06/14 09:59:28;;;;;;;4.85;1.48;;;;;;;33.74;35.29;100943.91;5005008;28;20044;-75
2021/06/14 10:02:14;;;;;;;3.60;1.98;;;;;;;33.92;35.92;100938.59;5046443;28;20171;-75
2021/06/14 10:04:39;;;;;;;4.03;1.52;;;;;;;34.03;37.21;100950.69;5028480;28;20029;-75
2021/06/14 10:07:12;;;;;;;6.13;2.00;;;;;;;33.87;36.28;100946.94;5041510;28;20040;-75
2021/06/14 10:09:42;;;;;;;3.88;2.03;;;;;;;33.71;35.85;100948.53;5049131;28;20030;-75
2021/06/14 10:12:27;;;;;;;5.20;2.00;;;;;;;33.70;36.75;100954.72;5045125;28;20056;-75
2021/06/14 10:15:02;;;;;;;2.53;1.42;;;;;;;33.85;35.50;100944.53;5042648;28;20039;-74
2021/06/14 10:17:35;;;;;;;3.47;2.20;;;;;;;34.13;36.71;100946.00;5041230;28;20031;-75
2021/06/14 10:20:17;;;;;;;3.88;1.70;;;;;;;33.93;35.13;100945.97;5037107;28;20157;-75
2021/06/14 10:22:43;;;;;;;3.42;1.73;;;;;;;34.09;35.69;100936.59;5036500;28;20031;-75
2021/06/14 10:25:10;;;;;;;4.15;1.90;;;;;;;34.31;36.00;100933.22;5042760;28;20037;-75
2021/06/14 10:27:35;;;;;;;4.50;1.50;;;;;;;34.36;35.95;100938.47;5039626;28;20033;-75
2021/06/14 10:30:02;;;;;;;3.05;1.80;;;;;;;34.50;36.33;100923.69;5029643;28;20079;-75
2021/06/14 10:32:28;;;;;;;2.65;1.80;;;;;;;34.39;34.69;100926.84;5040669;28;20052;-73
2021/06/14 10:34:53;;;;;;;3.53;1.50;;;;;;;34.71;35.71;100922.34;5006973;28;20644;-75
2021/06/14 10:37:20;;;;;;;3.17;1.80;;;;;;;34.86;36.29;100926.50;5018672;28;20040;-75
2021/06/14 10:39:47;;;;;;;3.45;1.85;;;;;;;34.97;36.74;100913.88;5024591;28;20038;-74
2021/06/14 10:42:13;;;;;;;2.22;1.80;;;;;;;34.90;35.94;100918.53;5024007;28;20055;-74
2021/06/14 10:44:38;;;;;;;3.13;1.77;;;;;;;35.00;34.64;100912.97;5038607;28;20489;-74
2021/06/14 10:47:06;;;;;;;3.15;1.98;;;;;;;35.06;36.47;100911.97;5042836;28;20099;-74
2021/06/14 10:49:32;;;;;;;3.42;2.05;;;;;;;35.09;36.77;100913.16;5018940;28;20031;-74
2021/06/14 10:52:02;;;;;;;3.65;1.90;;;;;;;35.09;36.92;100908.19;5024747;28;20033;-74
2021/06/14 10:54:39;;;;;;;3.53;1.73;;;;;;;35.16;36.82;100915.00;5025345;28;20045;-75
2021/06/14 10:57:07;;;;;;;4.10;1.98;;;;;;;35.34;35.48;100907.47;5037134;28;20055;-74
2021/06/14 10:59:42;;;;;;;4.50;1.60;;;;;;;35.56;35.88;100898.22;5035578;28;20040;-75
2021/06/14 11:02:09;;;;;;;2.67;1.60;;;;;;;35.69;35.71;100904.00;5025663;28;20515;-74
2021/06/14 11:04:34;;;;;;;4.68;1.90;;;;;;;35.67;35.62;100901.59;5038886;28;20029;-80
2021/06/14 11:07:00;;;;;;;1.90;1.70;;;;;;;35.86;35.83;100902.66;5019108;28;20090;-79
2021/06/14 11:09:41;;;;;;;2.95;1.55;;;;;;;36.02;35.44;100898.84;5036488;28;20075;-80
2021/06/14 11:12:08;;;;;;;3.92;1.70;;;;;;;36.08;34.88;100899.13;5030450;28;20033;-80
2021/06/14 11:14:41;;;;;;;2.95;1.58;;;;;;;36.26;34.85;100899.34;5038808;28;20080;-80
2021/06/14 11:17:23;;;;;;;2.40;1.55;;;;;;;36.35;34.35;100889.97;5034524;28;20375;-80
2021/06/14 11:19:50;;;;;;;;;;;;;;;36.47;34.16;100884.19;5042210;28;20164;-80
2021/06/14 11:22:17;;;;;;;3.70;1.77;;;;;;;36.37;33.98;100887.44;5022885;28;19913;-80
2021/06/14 11:24:43;;;;;;;4.60;1.90;;;;;;;36.37;34.21;100887.44;5028946;28;20057;-79
2021/06/14 11:27:09;;;;;;;4.88;1.98;;;;;;;36.55;34.09;100887.66;5024363;28;20041;-80
2021/06/14 11:29:42;;;;;;;2.13;1.77;;;;;;;36.44;32.90;100887.19;5018651;28;20024;-80
2021/06/14 11:32:07;;;;;;;3.17;1.75;;;;;;;36.68;33.76;100885.56;5042799;28;20076;-80